• Join FlightAware (Why Join?)
  • Login
  • US Flag 
05:06AM EDT


 

Airport Tracker/Info


-or-


 

Live Flight TrackerFlight Track Log ✈ SWA2336 ✈ 10-Apr-2013 ✈ KDAL - KLBB

Flight Track Log - Related Links

Times and Time Zones

All times are in EDT time to prevent confusion due to time zone crossing. See the SWA2336 flight status page for this flight to view local times or setup timezone preferences in your user account.

Time Position Orientation Groundspeed Altitude Reporting Facility
EDT Latitude Longitude Course Direction KTS MPH feet Rate Location/Type
03:27PM 32.9667 -97.0167 310° West 303 349 9,600  Level Dallas / Fort Worth TRACON
03:29PM 33.0106 -97.2078 285° West 267 307 17,100 2,640 Climbing Fort Worth Center
03:30PM 32.9430 -97.3386 287° West  Level FlightAware Approximate
03:30PM 33.0025 -97.3292 266° West 324 373 18,800  Level Fort Worth Center
03:31PM 32.9961 -97.4406 266° West 372 428 20,900 2,400 Climbing Fort Worth Center
03:32PM 32.9919 -97.5669 268° West 387 445 23,600 2,580 Climbing Fort Worth Center
03:33PM 32.9833 -97.6983 266° West 393 452 26,100 2,100 Climbing Fort Worth Center
03:34PM 32.9914 -97.8122 275° West 393 452 27,900 3,000 Climbing Fort Worth Center
03:35PM 33.0200 -97.9511 284° West 398 458 32,100 3,120 Climbing Fort Worth Center
03:36PM 33.0403 -98.0653 282° West 364 419 34,200 1,800 Climbing Fort Worth Center
03:37PM 33.0625 -98.1917 282° West 358 412 35,700 900 Climbing Fort Worth Center
03:38PM 33.0828 -98.3061 282° West 353 406 36,000 120 Climbing Fort Worth Center
03:39PM 33.1028 -98.4178 282° West 353 406 36,000  Level Fort Worth Center
03:40PM 33.1228 -98.5247 283° West 348 400 36,000  Level Fort Worth Center
03:41PM 33.1447 -98.6392 283° West 348 400 36,000  Level Fort Worth Center
03:42PM 33.1644 -98.7486 282° West 348 400 36,000  Level Fort Worth Center
03:43PM 33.1839 -98.8631 282° West 353 406 36,000  Level Fort Worth Center
03:44PM 33.2056 -98.9800 283° West 359 413 36,000  Level Fort Worth Center
03:45PM 33.2269 -99.0997 282° West 359 413 36,000  Level Fort Worth Center
03:46PM 33.2483 -99.2167 282° West 359 413 36,000  Level Fort Worth Center
03:47PM 33.2694 -99.3364 282° West 364 419 36,000  Level Fort Worth Center
03:48PM 33.2906 -99.4561 282° West 369 425 36,000  Level Fort Worth Center
03:49PM 33.3114 -99.5786 282° West 369 425 36,000  Level Fort Worth Center
03:50PM 33.3322 -99.7008 282° West 374 430 36,000  Level Fort Worth Center
03:51PM 33.3528 -99.8233 281° West 374 430 36,000  Level Fort Worth Center
03:52PM 33.3756 -99.9433 283° West 374 430 36,000 -360 Level Fort Worth Center
03:53PM 33.3939 -100.0681 280° West 374 430 35,300 -900 Descending Fort Worth Center
03:54PM 33.4100 -100.1881 279° West 374 430 34,300 -960 Descending Fort Worth Center
03:55PM 33.4219 -100.3103 277° West 374 430 33,400 -1,620 Descending Fort Worth Center
03:56PM 33.4358 -100.4278 278° West 369 425 31,100 -2,520 Descending Fort Worth Center
03:57PM 33.4456 -100.5428 276° West 364 419 28,500 -2,460 Descending Fort Worth Center
03:58PM 33.4594 -100.6528 279° West 352 405 26,200 -2,340 Descending Fort Worth Center
03:59PM 33.4653 -100.7425 274° West 340 391 24,200 -2,520 Descending Fort Worth Center
04:00PM 33.4822 -100.8903 278° West 344 396 21,100 -2,400 Descending Fort Worth Center
04:01PM 33.4942 -100.9853 279° West 347 399 19,100 -2,160 Descending Fort Worth Center
04:02PM 33.5036 -101.0878 276° West 322 371 16,900 -2,160 Descending Fort Worth Center
04:03PM 33.5156 -101.1806 279° West 312 359 14,900 -2,160 Descending Fort Worth Center
04:04PM 33.5247 -101.2881 276° West 312 359 12,600 -2,100 Descending Fort Worth Center
04:05PM 33.5344 -101.3781 277° West 312 359 10,700 -1,740 Descending Fort Worth Center
04:07PM 33.5431 -101.4981 275° West 271 312 9,000 -1,500 Descending Fort Worth Center
04:07PM 33.5517 -101.5583 280° West 274 315 7,800 -1,860 Descending Fort Worth Center
04:08PM 33.5608 -101.6533 277° West 274 315 5,500 -1,320 Descending Fort Worth Center
04:09PM 33.5689 -101.7261 278° West 261 300 5,200 -240 Descending Fort Worth Center
04:10PM 33.5703 -101.7511 274° West 229 264 5,200 -420 Level Fort Worth Center
04:10PM 33.5747 -101.8011 276° West 221 254 4,800 -600 Descending Fort Worth Center
04:11PM 33.5783 -101.8189 284° West 185 213 4,600 -600 Descending Fort Worth Center
04:11PM 33.6008 -101.8275 342° North 125 144 4,200 -600 Descending Fort Worth Center
04:12PM 33.6111 -101.8331 336° Northwest 112 129 4,000 -720 Descending Fort Worth Center
04:12PM 33.6383 -101.8294 North 114 131 3,500 -420 Descending Fort Worth Center
04:13PM 33.6714 -101.8383 347° North 114 131 3,300 -240 Descending Fort Worth Center
04:15PM 33.6637 -101.8206 140° Southeast  Level Estimated